createdAt,value
2023-01-25T00:00:46.168Z,95294.31
2023-01-25T00:03:12.877Z,95304.16
2023-01-25T00:05:39.664Z,95305.38
2023-01-25T00:08:06.436Z,95309.56
2023-01-25T00:10:33.131Z,95304.84
2023-01-25T00:12:59.940Z,95304.44
2023-01-25T00:15:26.651Z,95311.81
2023-01-25T00:17:53.301Z,95312.22
2023-01-25T00:20:20.210Z,95308.03
2023-01-25T00:22:46.873Z,95303.72
2023-01-25T00:25:13.556Z,95308.03
2023-01-25T00:27:40.436Z,95310.34
2023-01-25T00:30:07.833Z,95312.63
2023-01-25T00:32:49.690Z,95308.97
2023-01-25T00:35:16.531Z,95306.03
2023-01-25T00:37:44.763Z,95307.25
2023-01-25T00:40:13.161Z,95306.72
2023-01-25T00:42:40.491Z,95312.38
2023-01-25T00:45:08.637Z,95303.34
2023-01-25T00:47:35.472Z,95304.00
2023-01-25T00:50:02.227Z,95306.44
2023-01-25T00:52:28.971Z,95295.25
2023-01-25T00:54:55.714Z,95302.66
2023-01-25T00:57:22.488Z,95303.75
2023-01-25T00:59:49.159Z,95307.00
2023-01-25T01:02:15.935Z,95306.44
2023-01-25T01:04:42.643Z,95314.25
2023-01-25T01:07:11.181Z,95309.94
2023-01-25T01:09:37.881Z,95318.84
2023-01-25T01:12:04.990Z,95318.31
2023-01-25T01:14:31.899Z,95315.06
2023-01-25T01:16:58.713Z,95316.69
2023-01-25T01:19:25.531Z,95314.94
2023-01-25T01:21:52.312Z,95316.44
2023-01-25T01:24:20.134Z,95305.22
2023-01-25T01:26:47.020Z,95319.38
2023-01-25T01:29:13.829Z,95308.19
2023-01-25T01:31:40.710Z,95314.38
2023-01-25T01:34:07.471Z,95317.50
2023-01-25T01:36:34.260Z,95312.25
2023-01-25T01:39:01.045Z,95308.75
2023-01-25T01:41:28.028Z,95302.53
2023-01-25T01:43:54.871Z,95306.72
2023-01-25T01:46:40.052Z,95303.09
2023-01-25T01:49:14.542Z,95306.06
2023-01-25T01:51:47.484Z,95299.31
2023-01-25T01:54:16.237Z,95293.25
2023-01-25T01:56:57.553Z,95294.06
2023-01-25T01:59:28.200Z,95300.53
2023-01-25T02:01:55.896Z,95299.97
2023-01-25T02:04:23.560Z,95295.53
2023-01-25T02:06:58.735Z,95290.97
2023-01-25T02:09:26.419Z,95299.84
2023-01-25T02:11:54.058Z,95299.31
2023-01-25T02:14:21.030Z,95295.66
2023-01-25T02:16:47.811Z,95296.22
2023-01-25T02:19:35.761Z,95286.53
2023-01-25T02:22:07.828Z,95297.69
2023-01-25T02:24:35.409Z,95284.09
2023-01-25T02:27:02.273Z,95293.25
2023-01-25T02:29:29.719Z,95286.63
2023-01-25T02:32:04.153Z,95296.34
2023-01-25T02:34:30.848Z,95269.53
2023-01-25T02:36:57.811Z,95289.88
2023-01-25T02:39:26.731Z,95288.00
2023-01-25T02:41:53.877Z,95287.34
2023-01-25T02:44:24.496Z,95283.84
2023-01-25T02:46:51.492Z,95281.41
2023-01-25T02:49:19.371Z,95278.72
2023-01-25T02:51:52.071Z,95273.31
2023-01-25T02:54:20.479Z,95285.44
2023-01-25T02:56:47.322Z,95281.94
2023-01-25T02:59:14.413Z,95273.56
2023-01-25T03:01:43.220Z,95286.75
2023-01-25T03:04:10.328Z,95282.19
2023-01-25T03:06:38.573Z,95285.16
2023-01-25T03:09:07.110Z,95278.00
2023-01-25T03:11:33.991Z,95272.63
2023-01-25T03:14:01.080Z,95267.81
2023-01-25T03:16:28.167Z,95263.34
2023-01-25T03:18:55.500Z,95257.97
2023-01-25T03:21:23.404Z,95257.03
2023-01-25T03:23:58.486Z,95240.16
2023-01-25T03:26:26.533Z,95252.31
2023-01-25T03:28:53.249Z,95257.41
2023-01-25T03:31:20.188Z,95250.94
2023-01-25T03:33:47.210Z,95255.66
2023-01-25T03:36:13.960Z,95251.38
2023-01-25T03:38:40.747Z,95251.75
2023-01-25T03:41:08.080Z,95246.91
2023-01-25T03:43:35.101Z,95257.13
2023-01-25T03:46:02.269Z,95249.88
2023-01-25T03:48:30.331Z,95244.75
2023-01-25T03:50:59.058Z,95249.88
2023-01-25T03:53:30.222Z,95252.84
2023-01-25T03:56:01.795Z,95255.66
2023-01-25T03:58:29.576Z,95253.25
2023-01-25T04:00:58.197Z,95247.03
2023-01-25T04:03:25.664Z,95252.16
2023-01-25T04:05:53.729Z,95255.13
2023-01-25T04:08:21.110Z,95238.69
2023-01-25T04:10:55.532Z,95240.72
2023-01-25T04:13:23.200Z,95240.84
2023-01-25T04:15:50.412Z,95231.84
2023-01-25T04:18:17.418Z,95233.97
2023-01-25T04:20:44.463Z,95232.22
2023-01-25T04:23:11.891Z,95223.22
2023-01-25T04:25:39.091Z,95221.75
2023-01-25T04:28:05.873Z,95228.72
2023-01-25T04:30:32.615Z,95225.09
2023-01-25T04:33:06.888Z,95222.81
2023-01-25T04:35:33.627Z,95221.75
2023-01-25T04:38:00.600Z,95217.28
2023-01-25T04:40:27.665Z,95217.28
2023-01-25T04:42:54.491Z,95219.84
2023-01-25T04:45:21.563Z,95219.03
2023-01-25T04:47:48.690Z,95220.00
2023-01-25T04:50:15.596Z,95222.53
2023-01-25T04:52:42.261Z,95226.03
2023-01-25T04:55:09.423Z,95225.78
2023-01-25T04:57:36.276Z,95224.81
2023-01-25T05:00:03.724Z,95232.63
2023-01-25T05:02:30.484Z,95229.41
2023-01-25T05:04:57.280Z,95228.72
2023-01-25T05:07:24.011Z,95240.72
2023-01-25T05:09:50.724Z,95236.94
2023-01-25T05:12:18.196Z,95239.50
2023-01-25T05:14:44.993Z,95232.47
2023-01-25T05:17:11.690Z,95224.00
2023-01-25T05:19:38.451Z,95224.16
2023-01-25T05:22:07.724Z,95225.09
2023-01-25T05:24:35.507Z,95223.22
2023-01-25T05:27:05.810Z,95218.25
2023-01-25T05:29:37.893Z,95220.25
2023-01-25T05:32:06.890Z,95220.94
2023-01-25T05:34:33.781Z,95211.63
2023-01-25T05:37:01.125Z,95214.59
2023-01-25T05:39:28.225Z,95222.66
2023-01-25T05:41:54.836Z,95226.72
2023-01-25T05:44:21.608Z,95224.00
2023-01-25T05:46:48.492Z,95220.78
2023-01-25T05:49:15.267Z,95217.66
2023-01-25T05:51:42.048Z,95219.28
2023-01-25T05:54:13.076Z,95226.84
2023-01-25T05:56:40.158Z,95218.09
2023-01-25T05:59:06.814Z,95228.03
2023-01-25T06:01:34.219Z,95224.00
2023-01-25T06:04:00.925Z,95218.91
2023-01-25T06:06:27.725Z,95215.13
2023-01-25T06:08:54.456Z,95206.50
2023-01-25T06:11:23.127Z,95222.91
2023-01-25T06:13:50.847Z,95223.22
2023-01-25T06:16:18.696Z,95225.09
2023-01-25T06:18:45.569Z,95213.63
2023-01-25T06:21:12.357Z,95219.28
2023-01-25T06:23:39.303Z,95228.44
2023-01-25T06:26:08.195Z,95225.06
2023-01-25T06:28:36.776Z,95222.38
2023-01-25T06:31:15.435Z,95231.94
2023-01-25T06:33:42.927Z,95223.72
2023-01-25T06:36:14.979Z,95226.69
2023-01-25T06:38:42.048Z,95228.56
2023-01-25T06:41:12.116Z,95225.88
2023-01-25T06:43:39.447Z,95226.97
2023-01-25T06:46:07.999Z,95223.19
2023-01-25T06:48:35.380Z,95223.22
2023-01-25T06:51:07.032Z,95224.81
2023-01-25T06:53:36.440Z,95222.25
2023-01-25T06:56:06.014Z,95215.38
2023-01-25T06:58:33.049Z,95225.09
2023-01-25T07:01:05.389Z,95221.59
2023-01-25T07:03:32.826Z,95226.31
2023-01-25T07:06:04.481Z,95217.00
2023-01-25T07:08:32.435Z,95219.03
2023-01-25T07:11:04.385Z,95205.44
2023-01-25T07:13:32.500Z,95216.88
2023-01-25T07:16:01.551Z,95209.34
2023-01-25T07:18:30.313Z,95219.16
2023-01-25T07:21:08.789Z,95218.63
2023-01-25T07:23:38.031Z,95215.81
2023-01-25T07:26:06.205Z,95225.06
2023-01-25T07:28:33.739Z,95219.84
2023-01-25T07:31:07.466Z,95213.94
2023-01-25T07:33:34.875Z,95210.28
2023-01-25T07:36:06.633Z,95216.06
2023-01-25T07:38:33.778Z,95211.34
2023-01-25T07:41:00.598Z,95205.84
2023-01-25T07:43:27.763Z,95206.91
2023-01-25T07:45:54.704Z,95201.38
2023-01-25T07:48:21.625Z,95203.00
2023-01-25T07:51:08.425Z,95196.41
2023-01-25T07:53:35.130Z,95197.78
2023-01-25T07:56:01.760Z,95199.25
2023-01-25T07:58:28.674Z,95195.31
2023-01-25T08:00:55.376Z,95198.97
2023-01-25T08:03:22.366Z,95200.31
2023-01-25T08:05:49.341Z,95189.41
2023-01-25T08:08:16.072Z,95184.69
2023-01-25T08:10:42.890Z,95183.59
2023-01-25T08:13:09.711Z,95184.84
2023-01-25T08:15:36.712Z,95184.31
2023-01-25T08:18:03.521Z,95189.00
2023-01-25T08:20:30.280Z,95174.44
2023-01-25T08:22:57.010Z,95168.13
2023-01-25T08:25:23.801Z,95182.28
2023-01-25T08:27:52.273Z,95176.22
2023-01-25T08:30:19.231Z,95170.69
2023-01-25T08:32:46.033Z,95174.06
2023-01-25T08:35:12.800Z,95172.44
2023-01-25T08:37:39.481Z,95167.84
2023-01-25T08:40:07.932Z,95174.44
2023-01-25T08:42:35.051Z,95172.00
2023-01-25T08:45:02.867Z,95173.25
2023-01-25T08:47:29.714Z,95168.25
2023-01-25T08:49:59.423Z,95170.28
2023-01-25T08:52:26.363Z,95170.00
2023-01-25T08:54:53.029Z,95170.53
2023-01-25T08:57:19.761Z,95171.88
2023-01-25T08:59:46.630Z,95172.44
2023-01-25T09:02:13.393Z,95176.75
2023-01-25T09:04:40.159Z,95177.41
2023-01-25T09:07:07.832Z,95178.47
2023-01-25T09:09:34.553Z,95174.97
2023-01-25T09:12:01.323Z,95175.78
2023-01-25T09:14:28.022Z,95175.53
2023-01-25T09:16:54.791Z,95170.16
2023-01-25T09:19:21.563Z,95177.00
2023-01-25T09:21:48.533Z,95176.19
2023-01-25T09:24:15.264Z,95170.41
2023-01-25T09:26:47.812Z,95173.34
2023-01-25T09:29:16.881Z,95171.75
2023-01-25T09:31:44.272Z,95166.06
2023-01-25T09:34:12.573Z,95172.00
2023-01-25T09:36:39.840Z,95159.06
2023-01-25T09:39:07.054Z,95162.31
2023-01-25T09:42:20.385Z,95166.34
2023-01-25T09:44:55.937Z,95175.88
2023-01-25T09:47:55.955Z,95159.78
2023-01-25T09:50:33.401Z,95164.91
2023-01-25T09:53:06.054Z,95167.13
2023-01-25T09:55:33.591Z,95165.78
2023-01-25T09:58:02.439Z,95164.69
2023-01-25T10:00:33.112Z,95166.25
2023-01-25T10:03:12.586Z,95167.13
2023-01-25T10:05:50.995Z,95159.78
2023-01-25T10:08:32.721Z,95157.16
2023-01-25T10:11:11.981Z,95163.63
2023-01-25T10:13:38.711Z,95143.19
2023-01-25T10:16:12.134Z,95152.63
2023-01-25T10:19:12.210Z,95144.75
2023-01-25T10:21:43.098Z,95136.31
2023-01-25T10:24:31.193Z,95139.88
2023-01-25T10:27:02.682Z,95133.00
2023-01-25T10:29:32.439Z,95137.34
2023-01-25T10:32:19.733Z,95132.56
2023-01-25T10:34:56.945Z,95128.78
2023-01-25T10:37:29.527Z,95124.69
2023-01-25T10:40:07.061Z,95117.81
2023-01-25T10:42:38.543Z,95119.97
2023-01-25T10:45:15.603Z,95109.91
2023-01-25T10:47:44.539Z,95107.34
2023-01-25T10:50:43.038Z,95105.22
2023-01-25T10:53:22.104Z,95085.13
2023-01-25T10:56:25.509Z,95087.53
2023-01-25T10:58:56.919Z,95077.75
2023-01-25T11:01:29.840Z,95079.66
2023-01-25T11:03:57.711Z,95080.69
2023-01-25T11:06:30.479Z,95071.09
2023-01-25T11:08:57.235Z,95075.88
2023-01-25T11:11:32.972Z,95069.41
2023-01-25T11:13:59.817Z,95058.69
2023-01-25T11:16:32.159Z,95054.81
2023-01-25T11:19:00.612Z,95046.44
2023-01-25T11:21:30.352Z,95049.78
2023-01-25T11:24:09.357Z,95046.19
2023-01-25T11:26:40.866Z,95035.19
2023-01-25T11:29:17.660Z,95031.28
2023-01-25T11:31:47.972Z,95026.88
2023-01-25T11:34:17.493Z,95017.31
2023-01-25T11:37:06.742Z,95011.22
2023-01-25T11:39:48.484Z,95009.56
2023-01-25T11:42:25.813Z,95007.09
2023-01-25T11:45:15.521Z,94998.22
2023-01-25T11:47:49.971Z,94998.00
2023-01-25T11:50:34.708Z,94984.81
2023-01-25T11:53:25.911Z,94993.69
2023-01-25T11:56:04.600Z,94998.22
2023-01-25T11:58:54.494Z,94981.00
2023-01-25T12:01:27.272Z,94986.94
2023-01-25T12:04:17.785Z,94983.06
2023-01-25T12:06:59.052Z,94970.00
2023-01-25T12:09:31.612Z,94968.00
2023-01-25T12:12:01.358Z,94953.31
2023-01-25T12:15:13.338Z,94943.25
2023-01-25T12:18:19.256Z,94934.69
2023-01-25T12:21:05.340Z,94938.25
2023-01-25T12:23:33.923Z,94926.75
2023-01-25T12:26:06.676Z,94924.28
2023-01-25T12:28:39.542Z,94916.22
2023-01-25T12:31:34.685Z,94916.03
2023-01-25T12:34:11.872Z,94910.25
2023-01-25T12:36:45.191Z,94902.41
2023-01-25T12:39:20.697Z,94897.63
2023-01-25T12:42:09.217Z,94891.56
2023-01-25T12:44:49.992Z,94882.41
2023-01-25T12:47:34.900Z,94886.97
2023-01-25T12:50:15.981Z,94876.50
2023-01-25T12:52:48.198Z,94871.97
2023-01-25T12:55:17.703Z,94870.78
2023-01-25T12:57:52.381Z,94865.63
2023-01-25T13:00:46.116Z,94866.63
2023-01-25T13:03:29.998Z,94863.13
2023-01-25T13:06:04.166Z,94861.75
2023-01-25T13:08:41.566Z,94859.91
2023-01-25T13:11:22.376Z,94858.94
2023-01-25T13:13:49.554Z,94853.09
2023-01-25T13:16:30.033Z,94842.41
2023-01-25T13:18:58.002Z,94841.81
2023-01-25T13:21:37.095Z,94843.16
2023-01-25T13:24:22.123Z,94837.75
2023-01-25T13:26:50.076Z,94847.09
2023-01-25T13:29:38.753Z,94848.72
2023-01-25T13:32:13.652Z,94842.19
2023-01-25T13:34:44.307Z,94842.41
2023-01-25T13:37:17.835Z,94842.34
2023-01-25T13:39:46.569Z,94841.53
2023-01-25T13:42:13.339Z,94832.78
2023-01-25T13:44:45.939Z,94841.03
2023-01-25T13:47:30.631Z,94835.09
2023-01-25T13:50:14.771Z,94835.22
2023-01-25T13:52:59.712Z,94840.56
2023-01-25T13:55:27.254Z,94835.75
2023-01-25T13:57:54.771Z,94829.97
2023-01-25T14:00:22.013Z,94831.97
2023-01-25T14:02:54.723Z,94836.94
2023-01-25T14:05:24.949Z,94820.53
2023-01-25T14:07:54.185Z,94816.22
2023-01-25T14:10:24.383Z,94824.19
2023-01-25T14:12:52.576Z,94829.47
2023-01-25T14:15:26.724Z,94822.78
2023-01-25T14:18:16.370Z,94823.38
2023-01-25T14:20:44.612Z,94822.38
2023-01-25T14:23:24.718Z,94823.31
2023-01-25T14:25:52.534Z,94820.09
2023-01-25T14:28:19.368Z,94823.47
2023-01-25T14:30:51.149Z,94825.09
2023-01-25T14:33:27.655Z,94820.97
2023-01-25T14:36:00.103Z,94815.66
2023-01-25T14:38:40.897Z,94816.66
2023-01-25T14:41:17.656Z,94820.16
2023-01-25T14:44:10.876Z,94812.59
2023-01-25T14:46:38.719Z,94801.41
2023-01-25T14:49:28.239Z,94799.97
2023-01-25T14:52:07.884Z,94807.09
2023-01-25T14:54:57.532Z,94800.63
2023-01-25T14:57:38.588Z,94798.09
2023-01-25T15:00:21.333Z,94798.91
2023-01-25T15:02:53.890Z,94791.69
2023-01-25T15:05:21.623Z,94797.78
2023-01-25T15:08:07.501Z,94787.13
2023-01-25T15:10:35.706Z,94783.69
2023-01-25T15:13:15.589Z,94781.22
2023-01-25T15:15:54.779Z,94774.53
2023-01-25T15:18:48.741Z,94777.41
2023-01-25T15:21:19.609Z,94770.75
2023-01-25T15:23:48.216Z,94771.97
2023-01-25T15:26:20.730Z,94771.34
2023-01-25T15:28:48.703Z,94770.97
2023-01-25T15:31:29.962Z,94763.06
2023-01-25T15:33:57.523Z,94765.75
2023-01-25T15:36:24.625Z,94761.69
2023-01-25T15:38:51.457Z,94762.56
2023-01-25T15:41:21.011Z,94757.81
2023-01-25T15:43:48.400Z,94749.75
2023-01-25T15:46:22.366Z,94766.22
2023-01-25T15:48:51.092Z,94755.25
2023-01-25T15:51:18.445Z,94756.84
2023-01-25T15:53:45.223Z,94754.31
2023-01-25T15:56:18.638Z,94755.09
2023-01-25T15:58:48.242Z,94744.28
2023-01-25T16:01:15.527Z,94740.66
2023-01-25T16:03:42.265Z,94746.09
2023-01-25T16:06:31.728Z,94751.47
2023-01-25T16:09:00.093Z,94742.16
2023-01-25T16:11:27.230Z,94745.75
2023-01-25T16:13:54.199Z,94743.22
2023-01-25T16:16:23.386Z,94737.56
2023-01-25T16:18:50.508Z,94735.31
2023-01-25T16:21:17.200Z,94740.84
2023-01-25T16:23:43.940Z,94730.25
2023-01-25T16:26:24.979Z,94732.16
2023-01-25T16:28:51.984Z,94732.03
2023-01-25T16:31:31.301Z,94723.97
2023-01-25T16:33:59.094Z,94735.59
2023-01-25T16:36:25.810Z,94731.56
2023-01-25T16:38:52.683Z,94736.41
2023-01-25T16:41:19.543Z,94736.97
2023-01-25T16:43:48.311Z,94727.06
2023-01-25T16:46:23.552Z,94729.97
2023-01-25T16:48:55.001Z,94728.66
2023-01-25T16:51:26.786Z,94722.88
2023-01-25T16:53:56.100Z,94737.03
2023-01-25T16:56:27.732Z,94731.66
2023-01-25T16:58:56.384Z,94728.56
2023-01-25T17:01:25.043Z,94729.94
2023-01-25T17:03:52.153Z,94728.84
2023-01-25T17:06:27.480Z,94717.97
2023-01-25T17:09:02.201Z,94727.69
2023-01-25T17:11:31.994Z,94715.84
2023-01-25T17:13:59.852Z,94719.56
2023-01-25T17:16:28.049Z,94700.72
2023-01-25T17:18:56.439Z,94697.38
2023-01-25T17:21:23.634Z,94711.03
2023-01-25T17:23:50.856Z,94713.13
2023-01-25T17:26:19.388Z,94713.94
2023-01-25T17:28:46.534Z,94713.75
2023-01-25T17:31:19.451Z,94712.94
2023-01-25T17:33:46.639Z,94703.00
2023-01-25T17:36:15.123Z,94707.81
2023-01-25T17:38:42.284Z,94697.50
2023-01-25T17:41:11.542Z,94699.91
2023-01-25T17:43:38.337Z,94693.13
2023-01-25T17:46:16.281Z,94700.19
2023-01-25T17:48:43.080Z,94698.97
2023-01-25T17:51:09.866Z,94684.56
2023-01-25T17:53:36.650Z,94682.03
2023-01-25T17:56:05.545Z,94665.16
2023-01-25T17:58:35.093Z,94681.78
2023-01-25T18:01:13.236Z,94679.69
2023-01-25T18:03:41.577Z,94681.16
2023-01-25T18:06:09.618Z,94671.06
2023-01-25T18:08:41.022Z,94672.69
2023-01-25T18:11:09.073Z,94669.91
2023-01-25T18:13:42.788Z,94664.50
2023-01-25T18:16:10.292Z,94663.56
2023-01-25T18:18:38.339Z,94658.06
2023-01-25T18:21:10.747Z,94658.72
2023-01-25T18:23:38.538Z,94654.56
2023-01-25T18:26:06.628Z,94652.00
2023-01-25T18:28:34.145Z,94658.50
2023-01-25T18:31:03.769Z,94655.50
2023-01-25T18:33:30.829Z,94654.69
2023-01-25T18:36:01.272Z,94649.97
2023-01-25T18:38:29.895Z,94654.56
2023-01-25T18:40:56.935Z,94644.06
2023-01-25T18:43:23.790Z,94645.81
2023-01-25T18:45:58.785Z,94635.78
2023-01-25T18:48:32.582Z,94630.31
2023-01-25T18:51:09.293Z,94633.81
2023-01-25T18:53:37.928Z,94632.88
2023-01-25T18:56:11.637Z,94634.13
2023-01-25T18:58:38.596Z,94623.88
2023-01-25T19:01:09.195Z,94625.28
2023-01-25T19:03:36.322Z,94633.88
2023-01-25T19:06:03.696Z,94627.09
2023-01-25T19:08:33.272Z,94632.22
2023-01-25T19:11:01.631Z,94621.84
2023-01-25T19:13:31.951Z,94622.13
2023-01-25T19:16:07.589Z,94620.53
2023-01-25T19:18:36.547Z,94618.41
2023-01-25T19:21:07.043Z,94619.56
2023-01-25T19:23:35.943Z,94610.69
2023-01-25T19:26:03.369Z,94611.69
2023-01-25T19:28:30.361Z,94612.50
2023-01-25T19:30:57.557Z,94599.28
2023-01-25T19:33:24.371Z,94600.94
2023-01-25T19:35:59.426Z,94599.50
2023-01-25T19:38:26.240Z,94593.00
2023-01-25T19:40:53.052Z,94582.78
2023-01-25T19:43:19.823Z,94592.13
2023-01-25T19:45:46.528Z,94592.66
2023-01-25T19:48:13.292Z,94588.13
2023-01-25T19:50:40.004Z,94584.91
2023-01-25T19:53:07.211Z,94576.72
2023-01-25T19:55:33.962Z,94567.69
2023-01-25T19:58:00.682Z,94573.72
2023-01-25T20:00:27.684Z,94564.09
2023-01-25T20:02:57.394Z,94566.44
2023-01-25T20:05:28.263Z,94567.81
2023-01-25T20:07:54.991Z,94555.41
2023-01-25T20:10:21.622Z,94562.78
2023-01-25T20:12:48.399Z,94548.47
2023-01-25T20:15:15.582Z,94557.47
2023-01-25T20:17:43.589Z,94552.22
2023-01-25T20:20:11.068Z,94546.28
2023-01-25T20:22:37.993Z,94551.13
2023-01-25T20:25:05.044Z,94542.34
2023-01-25T20:27:31.702Z,94549.50
2023-01-25T20:29:58.452Z,94547.09
2023-01-25T20:32:32.656Z,94540.09
2023-01-25T20:35:03.575Z,94535.13
2023-01-25T20:37:30.355Z,94535.94
2023-01-25T20:39:57.318Z,94529.34
2023-01-25T20:42:24.133Z,94529.06
2023-01-25T20:44:50.857Z,94527.59
2023-01-25T20:47:17.652Z,94522.13
2023-01-25T20:49:44.600Z,94506.91
2023-01-25T20:52:13.972Z,94511.09
2023-01-25T20:54:41.757Z,94515.41
2023-01-25T20:57:08.656Z,94517.97
2023-01-25T20:59:35.469Z,94514.03
2023-01-25T21:02:02.328Z,94506.38
2023-01-25T21:04:28.964Z,94497.63
2023-01-25T21:06:55.685Z,94493.50
2023-01-25T21:09:23.330Z,94501.41
2023-01-25T21:11:50.109Z,94496.72
2023-01-25T21:14:16.789Z,94496.44
2023-01-25T21:16:43.426Z,94488.41
2023-01-25T21:19:10.631Z,94485.38
2023-01-25T21:21:38.702Z,94492.22
2023-01-25T21:24:06.027Z,94482.44
2023-01-25T21:26:34.153Z,94485.81
2023-01-25T21:29:01.701Z,94485.50
2023-01-25T21:31:32.883Z,94483.91
2023-01-25T21:33:59.985Z,94478.81
2023-01-25T21:36:27.213Z,94475.28
2023-01-25T21:38:55.193Z,94478.56
2023-01-25T21:41:26.765Z,94475.88
2023-01-25T21:44:12.983Z,94477.19
2023-01-25T21:46:40.141Z,94473.59
2023-01-25T21:49:40.770Z,94471.44
2023-01-25T21:52:07.559Z,94460.56
2023-01-25T21:54:36.170Z,94455.16
2023-01-25T21:57:06.177Z,94461.88
2023-01-25T21:59:32.862Z,94449.75
2023-01-25T22:01:59.473Z,94446.69
2023-01-25T22:04:27.240Z,94442.69
2023-01-25T22:06:54.576Z,94442.81
2023-01-25T22:09:22.169Z,94434.34
2023-01-25T22:11:49.681Z,94435.81
2023-01-25T22:14:16.738Z,94431.81
2023-01-25T22:16:43.392Z,94425.09
2023-01-25T22:19:10.273Z,94428.00
2023-01-25T22:21:36.928Z,94422.25
2023-01-25T22:24:05.125Z,94426.69
2023-01-25T22:27:02.783Z,94414.88
2023-01-25T22:29:29.991Z,94413.78
2023-01-25T22:31:57.202Z,94405.56
2023-01-25T22:34:23.936Z,94407.53
2023-01-25T22:36:50.534Z,94402.13
2023-01-25T22:39:17.183Z,94406.88
2023-01-25T22:41:43.862Z,94401.25
2023-01-25T22:44:11.148Z,94392.84
2023-01-25T22:46:37.879Z,94388.44
2023-01-25T22:49:05.057Z,94391.22
2023-01-25T22:51:32.243Z,94381.50
2023-01-25T22:53:59.510Z,94372.47
2023-01-25T22:56:32.049Z,94379.84
2023-01-25T22:59:00.400Z,94378.00
2023-01-25T23:01:29.684Z,94374.16
2023-01-25T23:03:57.162Z,94368.53
2023-01-25T23:06:26.440Z,94364.94
2023-01-25T23:08:57.371Z,94358.72
2023-01-25T23:11:24.891Z,94356.28
2023-01-25T23:14:12.070Z,94347.97
2023-01-25T23:16:38.688Z,94344.47
2023-01-25T23:19:05.991Z,94340.66
2023-01-25T23:21:35.787Z,94337.09
2023-01-25T23:24:03.820Z,94334.13
2023-01-25T23:26:37.777Z,94329.16
2023-01-25T23:29:07.318Z,94329.19
2023-01-25T23:31:34.099Z,94325.00
2023-01-25T23:34:02.370Z,94324.72
2023-01-25T23:36:31.511Z,94311.28
2023-01-25T23:38:58.587Z,94309.88
2023-01-25T23:41:27.286Z,94314.03
2023-01-25T23:43:55.122Z,94306.47
2023-01-25T23:46:22.920Z,94303.63
2023-01-25T23:48:49.578Z,94308.41
2023-01-25T23:51:17.535Z,94297.09
2023-01-25T23:53:44.290Z,94299.81
2023-01-25T23:56:17.123Z,94291.06
2023-01-25T23:58:44.467Z,94293.72
